sensor_id;sensor_type;location;lat;lon;timestamp;pressure;altitude;pressure_sealevel;temperature;humidity
57086;BME280;42964;42.910;23.792;2022-07-15T00:01:57;97706.53;;;15.10;72.35
57086;BME280;42964;42.910;23.792;2022-07-15T00:06:56;97708.56;;;14.95;73.06
57086;BME280;42964;42.910;23.792;2022-07-15T00:11:55;97692.06;;;14.92;73.26
57086;BME280;42964;42.910;23.792;2022-07-15T00:16:56;97689.53;;;14.89;72.84
57086;BME280;42964;42.910;23.792;2022-07-15T00:21:55;97689.63;;;14.82;73.69
57086;BME280;42964;42.910;23.792;2022-07-15T00:26:55;97692.31;;;14.81;73.90
57086;BME280;42964;42.910;23.792;2022-07-15T00:31:55;97704.59;;;14.76;74.14
57086;BME280;42964;42.910;23.792;2022-07-15T00:36:54;97698.75;;;14.60;76.04
57086;BME280;42964;42.910;23.792;2022-07-15T00:41:53;97690.22;;;14.50;75.99
57086;BME280;42964;42.910;23.792;2022-07-15T00:46:52;97687.69;;;14.46;75.85
57086;BME280;42964;42.910;23.792;2022-07-15T00:51:54;97690.34;;;14.43;75.66
57086;BME280;42964;42.910;23.792;2022-07-15T00:56:56;97692.84;;;14.49;75.74
57086;BME280;42964;42.910;23.792;2022-07-15T01:01:56;97683.31;;;14.48;75.65
57086;BME280;42964;42.910;23.792;2022-07-15T01:06:55;97682.50;;;14.44;76.31
57086;BME280;42964;42.910;23.792;2022-07-15T01:11:54;97682.56;;;14.39;76.38
57086;BME280;42964;42.910;23.792;2022-07-15T01:16:53;97676.56;;;14.34;76.27
57086;BME280;42964;42.910;23.792;2022-07-15T01:21:52;97667.97;;;14.29;76.21
57086;BME280;42964;42.910;23.792;2022-07-15T01:26:51;97667.13;;;14.26;76.08
57086;BME280;42964;42.910;23.792;2022-07-15T01:31:50;97662.84;;;14.23;76.46
57086;BME280;42964;42.910;23.792;2022-07-15T01:36:49;97664.66;;;14.18;77.23
57086;BME280;42964;42.910;23.792;2022-07-15T01:41:48;97662.06;;;14.18;77.32
57086;BME280;42964;42.910;23.792;2022-07-15T01:46:47;97640.34;;;14.16;77.18
57086;BME280;42964;42.910;23.792;2022-07-15T01:51:46;97651.69;;;14.13;77.61
57086;BME280;42964;42.910;23.792;2022-07-15T01:56:45;97638.81;;;14.03;77.89
57086;BME280;42964;42.910;23.792;2022-07-15T02:01:44;97649.38;;;13.96;78.40
57086;BME280;42964;42.910;23.792;2022-07-15T02:06:43;97658.13;;;13.92;79.08
57086;BME280;42964;42.910;23.792;2022-07-15T02:11:43;97647.94;;;13.77;79.79
57086;BME280;42964;42.910;23.792;2022-07-15T02:16:42;97656.88;;;13.61;80.66
57086;BME280;42964;42.910;23.792;2022-07-15T02:21:41;97661.31;;;13.51;80.75
57086;BME280;42964;42.910;23.792;2022-07-15T02:26:40;97673.03;;;13.21;81.77
57086;BME280;42964;42.910;23.792;2022-07-15T02:31:39;97663.63;;;13.09;81.46
57086;BME280;42964;42.910;23.792;2022-07-15T02:36:39;97661.97;;;13.02;81.83
57086;BME280;42964;42.910;23.792;2022-07-15T02:41:38;97672.44;;;12.99;81.59
57086;BME280;42964;42.910;23.792;2022-07-15T02:46:37;97671.63;;;12.93;81.67
57086;BME280;42964;42.910;23.792;2022-07-15T02:51:35;97671.75;;;12.84;82.46
57086;BME280;42964;42.910;23.792;2022-07-15T02:56:34;97670.94;;;12.79;82.64
57086;BME280;42964;42.910;23.792;2022-07-15T03:01:33;97666.63;;;12.75;82.64
57086;BME280;42964;42.910;23.792;2022-07-15T03:06:32;97665.75;;;12.76;82.55
57086;BME280;42964;42.910;23.792;2022-07-15T03:11:32;97667.44;;;12.80;82.21
57086;BME280;42964;42.910;23.792;2022-07-15T03:16:31;97664.78;;;12.86;82.17
57086;BME280;42964;42.910;23.792;2022-07-15T03:21:30;97651.72;;;12.89;82.17
57086;BME280;42964;42.910;23.792;2022-07-15T03:26:29;97653.34;;;12.97;82.18
57086;BME280;42964;42.910;23.792;2022-07-15T03:31:28;97650.69;;;13.01;82.40
57086;BME280;42964;42.910;23.792;2022-07-15T03:36:27;97648.94;;;13.02;82.81
57086;BME280;42964;42.910;23.792;2022-07-15T03:41:26;97653.19;;;13.09;82.88
57086;BME280;42964;42.910;23.792;2022-07-15T03:46:26;97644.50;;;13.10;83.29
57086;BME280;42964;42.910;23.792;2022-07-15T03:51:26;97644.53;;;13.08;83.37
57086;BME280;42964;42.910;23.792;2022-07-15T03:56:30;97652.44;;;12.99;83.44
57086;BME280;42964;42.910;23.792;2022-07-15T04:01:29;97658.56;;;12.98;83.80
57086;BME280;42964;42.910;23.792;2022-07-15T04:06:28;97650.75;;;12.98;83.99
57086;BME280;42964;42.910;23.792;2022-07-15T04:11:27;97649.00;;;12.97;84.01
57086;BME280;42964;42.910;23.792;2022-07-15T04:16:26;97657.66;;;12.99;84.21
57086;BME280;42964;42.910;23.792;2022-07-15T04:21:27;97655.75;;;13.13;83.91
57086;BME280;42964;42.910;23.792;2022-07-15T04:26:26;97649.44;;;13.30;83.65
57086;BME280;42964;42.910;23.792;2022-07-15T04:31:26;97655.25;;;13.49;83.32
57086;BME280;42964;42.910;23.792;2022-07-15T04:36:25;97654.09;;;13.71;83.12
57086;BME280;42964;42.910;23.792;2022-07-15T04:41:24;97651.22;;;13.88;82.75
57086;BME280;42964;42.910;23.792;2022-07-15T04:46:23;97657.97;;;14.03;82.39
57086;BME280;42964;42.910;23.792;2022-07-15T04:51:22;97640.09;;;14.31;81.27
57086;BME280;42964;42.910;23.792;2022-07-15T04:56:21;97651.91;;;14.51;80.44
57086;BME280;42964;42.910;23.792;2022-07-15T05:01:20;97647.94;;;14.78;80.02
57086;BME280;42964;42.910;23.792;2022-07-15T05:06:19;97650.88;;;15.06;79.34
57086;BME280;42964;42.910;23.792;2022-07-15T05:11:18;97645.03;;;15.34;79.22
57086;BME280;42964;42.910;23.792;2022-07-15T05:16:17;97641.72;;;15.66;78.36
57086;BME280;42964;42.910;23.792;2022-07-15T05:21:16;97637.50;;;15.98;77.67
57086;BME280;42964;42.910;23.792;2022-07-15T05:26:15;97642.75;;;16.32;76.75
57086;BME280;42964;42.910;23.792;2022-07-15T05:31:14;97636.63;;;16.66;75.96
57086;BME280;42964;42.910;23.792;2022-07-15T05:36:14;97641.16;;;16.92;72.77
57086;BME280;42964;42.910;23.792;2022-07-15T05:41:13;97638.03;;;17.10;71.09
57086;BME280;42964;42.910;23.792;2022-07-15T05:46:12;97638.16;;;17.35;70.24
57086;BME280;42964;42.910;23.792;2022-07-15T05:51:11;97637.41;;;17.60;69.44
57086;BME280;42964;42.910;23.792;2022-07-15T05:56:10;97632.97;;;17.90;68.66
57086;BME280;42964;42.910;23.792;2022-07-15T06:01:09;97633.03;;;18.15;65.60
57086;BME280;42964;42.910;23.792;2022-07-15T06:06:08;97624.47;;;18.35;63.87
57086;BME280;42964;42.910;23.792;2022-07-15T06:11:07;97622.69;;;18.61;64.63
57086;BME280;42964;42.910;23.792;2022-07-15T06:16:07;97619.06;;;18.90;63.03
57086;BME280;42964;42.910;23.792;2022-07-15T06:21:06;97625.91;;;19.18;58.88
57086;BME280;42964;42.910;23.792;2022-07-15T06:26:05;97622.34;;;19.42;57.11
57086;BME280;42964;42.910;23.792;2022-07-15T06:31:04;97623.88;;;19.48;56.16
57086;BME280;42964;42.910;23.792;2022-07-15T06:36:04;97616.91;;;19.71;56.25
57086;BME280;42964;42.910;23.792;2022-07-15T06:41:03;97621.09;;;19.97;55.65
57086;BME280;42964;42.910;23.792;2022-07-15T06:46:02;97612.91;;;20.25;54.97
57086;BME280;42964;42.910;23.792;2022-07-15T06:51:01;97609.84;;;20.56;53.40
57086;BME280;42964;42.910;23.792;2022-07-15T06:55:59;97617.31;;;20.86;52.78
57086;BME280;42964;42.910;23.792;2022-07-15T07:00:58;97608.16;;;21.13;51.79
57086;BME280;42964;42.910;23.792;2022-07-15T07:05:58;97606.75;;;21.44;51.09
57086;BME280;42964;42.910;23.792;2022-07-15T07:10:57;97608.03;;;21.54;47.94
57086;BME280;42964;42.910;23.792;2022-07-15T07:15:56;97599.88;;;21.78;46.35
57086;BME280;42964;42.910;23.792;2022-07-15T07:20:55;97591.53;;;22.05;47.22
57086;BME280;42964;42.910;23.792;2022-07-15T07:25:55;97593.88;;;22.28;45.31
57086;BME280;42964;42.910;23.792;2022-07-15T07:30:54;97591.69;;;22.54;45.21
57086;BME280;42964;42.910;23.792;2022-07-15T07:35:53;97588.72;;;22.77;46.15
57086;BME280;42964;42.910;23.792;2022-07-15T07:40:52;97584.59;;;23.05;45.87
57086;BME280;42964;42.910;23.792;2022-07-15T07:45:51;97586.91;;;23.27;45.56
57086;BME280;42964;42.910;23.792;2022-07-15T07:50:50;97587.22;;;23.54;47.09
57086;BME280;42964;42.910;23.792;2022-07-15T07:55:51;97575.06;;;23.82;45.71
57086;BME280;42964;42.910;23.792;2022-07-15T08:00:50;97582.59;;;24.04;45.02
57086;BME280;42964;42.910;23.792;2022-07-15T08:05:51;97582.63;;;24.34;44.46
57086;BME280;42964;42.910;23.792;2022-07-15T08:10:55;97576.44;;;24.64;44.85
57086;BME280;42964;42.910;23.792;2022-07-15T08:15:54;97578.69;;;24.84;44.91
57086;BME280;42964;42.910;23.792;2022-07-15T08:20:54;97574.09;;;25.02;43.87
57086;BME280;42964;42.910;23.792;2022-07-15T08:25:53;97567.53;;;25.22;43.39
57086;BME280;42964;42.910;23.792;2022-07-15T08:30:52;97560.34;;;25.51;42.37
57086;BME280;42964;42.910;23.792;2022-07-15T08:35:51;97561.09;;;25.68;41.20
57086;BME280;42964;42.910;23.792;2022-07-15T08:40:51;97556.59;;;25.95;40.94
57086;BME280;42964;42.910;23.792;2022-07-15T08:45:50;97549.34;;;26.25;38.61
57086;BME280;42964;42.910;23.792;2022-07-15T08:50:50;97551.50;;;26.58;37.68
57086;BME280;42964;42.910;23.792;2022-07-15T08:55:49;97545.00;;;26.75;34.84
57086;BME280;42964;42.910;23.792;2022-07-15T09:00:48;97545.53;;;26.93;35.28
57086;BME280;42964;42.910;23.792;2022-07-15T09:05:48;97535.16;;;27.14;33.91
57086;BME280;42964;42.910;23.792;2022-07-15T09:15:50;97533.22;;;27.29;30.99
57086;BME280;42964;42.910;23.792;2022-07-15T09:20:50;97535.28;;;27.49;29.82
57086;BME280;42964;42.910;23.792;2022-07-15T09:25:50;97539.28;;;27.68;30.78
57086;BME280;42964;42.910;23.792;2022-07-15T09:30:50;97530.03;;;27.85;32.29
57086;BME280;42964;42.910;23.792;2022-07-15T09:36:20;97530.13;;;28.07;30.84
57086;BME280;42964;42.910;23.792;2022-07-15T09:41:35;97529.22;;;28.31;30.35
57086;BME280;42964;42.910;23.792;2022-07-15T09:51:51;97535.34;;;28.55;30.31
57086;BME280;42964;42.910;23.792;2022-07-15T09:56:53;97530.03;;;28.66;30.19
57086;BME280;42964;42.910;23.792;2022-07-15T10:01:52;97526.88;;;28.73;29.61
57086;BME280;42964;42.910;23.792;2022-07-15T10:06:52;97521.56;;;28.73;29.58
57086;BME280;42964;42.910;23.792;2022-07-15T10:11:54;97517.94;;;28.74;28.45
57086;BME280;42964;42.910;23.792;2022-07-15T10:27:30;97506.94;;;29.11;27.74
57086;BME280;42964;42.910;23.792;2022-07-15T10:43:41;97497.47;;;29.73;25.43
57086;BME280;42964;42.910;23.792;2022-07-15T10:48:41;97488.91;;;29.90;25.74
57086;BME280;42964;42.910;23.792;2022-07-15T10:53:46;97472.69;;;30.03;25.84
57086;BME280;42964;42.910;23.792;2022-07-15T11:04:19;97476.31;;;30.02;23.94
57086;BME280;42964;42.910;23.792;2022-07-15T11:15:11;97471.63;;;30.15;23.38
57086;BME280;42964;42.910;23.792;2022-07-15T11:30:38;97468.59;;;30.29;25.52
57086;BME280;42964;42.910;23.792;2022-07-15T11:36:03;97473.06;;;30.19;25.04
57086;BME280;42964;42.910;23.792;2022-07-15T11:41:02;97466.59;;;30.22;24.97
57086;BME280;42964;42.910;23.792;2022-07-15T11:46:21;97452.97;;;30.04;24.92
57086;BME280;42964;42.910;23.792;2022-07-15T11:51:27;97464.75;;;30.22;25.79
57086;BME280;42964;42.910;23.792;2022-07-15T11:56:27;97459.84;;;30.27;25.14
57086;BME280;42964;42.910;23.792;2022-07-15T12:01:28;97456.22;;;30.28;25.06
57086;BME280;42964;42.910;23.792;2022-07-15T12:06:31;97446.66;;;30.36;24.89
57086;BME280;42964;42.910;23.792;2022-07-15T12:11:32;97444.22;;;30.53;25.24
57086;BME280;42964;42.910;23.792;2022-07-15T12:21:33;97446.81;;;30.65;24.45
57086;BME280;42964;42.910;23.792;2022-07-15T12:26:37;97452.38;;;30.73;24.67
57086;BME280;42964;42.910;23.792;2022-07-15T12:31:39;97440.66;;;30.74;24.21
57086;BME280;42964;42.910;23.792;2022-07-15T12:36:38;97444.44;;;31.02;24.13
57086;BME280;42964;42.910;23.792;2022-07-15T12:41:39;97438.25;;;31.11;24.18
57086;BME280;42964;42.910;23.792;2022-07-15T12:46:54;97438.97;;;31.23;24.39
57086;BME280;42964;42.910;23.792;2022-07-15T12:51:55;97423.06;;;31.51;25.06
57086;BME280;42964;42.910;23.792;2022-07-15T12:56:54;97434.50;;;31.63;23.54
57086;BME280;42964;42.910;23.792;2022-07-15T13:02:03;97431.53;;;31.56;23.56
57086;BME280;42964;42.910;23.792;2022-07-15T13:07:02;97439.59;;;31.66;23.59
57086;BME280;42964;42.910;23.792;2022-07-15T13:12:01;97451.31;;;31.55;23.43
57086;BME280;42964;42.910;23.792;2022-07-15T13:17:00;97427.53;;;31.31;23.50
57086;BME280;42964;42.910;23.792;2022-07-15T13:22:00;97429.00;;;31.54;23.66
57086;BME280;42964;42.910;23.792;2022-07-15T13:26:59;97443.19;;;31.26;23.84
57086;BME280;42964;42.910;23.792;2022-07-15T13:31:58;97434.63;;;31.32;23.71
57086;BME280;42964;42.910;23.792;2022-07-15T13:36:57;97433.91;;;31.30;24.00
57086;BME280;42964;42.910;23.792;2022-07-15T13:41:56;97428.66;;;31.38;23.21
57086;BME280;42964;42.910;23.792;2022-07-15T13:46:55;97435.75;;;31.49;23.07
57086;BME280;42964;42.910;23.792;2022-07-15T13:51:55;97435.44;;;31.42;22.71
57086;BME280;42964;42.910;23.792;2022-07-15T13:56:54;97438.59;;;31.67;22.66
57086;BME280;42964;42.910;23.792;2022-07-15T14:01:53;97434.63;;;31.42;22.56
57086;BME280;42964;42.910;23.792;2022-07-15T14:06:52;97428.13;;;31.34;22.25
57086;BME280;42964;42.910;23.792;2022-07-15T14:11:51;97430.94;;;31.43;21.37
57086;BME280;42964;42.910;23.792;2022-07-15T14:16:52;97428.72;;;31.57;20.47
57086;BME280;42964;42.910;23.792;2022-07-15T14:21:51;97429.81;;;31.94;21.64
57086;BME280;42964;42.910;23.792;2022-07-15T14:26:50;97423.19;;;31.88;21.98
57086;BME280;42964;42.910;23.792;2022-07-15T14:31:49;97426.44;;;31.82;22.56
57086;BME280;42964;42.910;23.792;2022-07-15T14:36:48;97429.97;;;31.83;22.26
57086;BME280;42964;42.910;23.792;2022-07-15T14:41:47;97433.09;;;31.88;22.17
57086;BME280;42964;42.910;23.792;2022-07-15T14:46:46;97425.59;;;31.82;22.25
57086;BME280;42964;42.910;23.792;2022-07-15T14:51:45;97429.28;;;31.61;23.25
57086;BME280;42964;42.910;23.792;2022-07-15T14:56:44;97419.84;;;31.57;23.14
57086;BME280;42964;42.910;23.792;2022-07-15T15:01:43;97425.06;;;31.78;22.98
57086;BME280;42964;42.910;23.792;2022-07-15T15:06:42;97429.84;;;31.74;23.51
57086;BME280;42964;42.910;23.792;2022-07-15T15:11:41;97425.63;;;31.62;23.64
57086;BME280;42964;42.910;23.792;2022-07-15T15:16:40;97417.97;;;31.48;22.91
57086;BME280;42964;42.910;23.792;2022-07-15T15:21:39;97419.97;;;31.55;23.53
57086;BME280;42964;42.910;23.792;2022-07-15T15:26:38;97417.28;;;31.55;23.74
57086;BME280;42964;42.910;23.792;2022-07-15T15:31:38;97412.88;;;31.35;24.49
57086;BME280;42964;42.910;23.792;2022-07-15T15:36:36;97416.25;;;31.17;25.32
57086;BME280;42964;42.910;23.792;2022-07-15T15:41:35;97421.34;;;31.21;25.33
57086;BME280;42964;42.910;23.792;2022-07-15T15:46:35;97422.47;;;31.18;24.86
57086;BME280;42964;42.910;23.792;2022-07-15T15:51:34;97426.56;;;31.12;25.13
57086;BME280;42964;42.910;23.792;2022-07-15T15:56:33;97428.06;;;31.05;25.69
57086;BME280;42964;42.910;23.792;2022-07-15T16:01:32;97436.69;;;31.09;25.38
57086;BME280;42964;42.910;23.792;2022-07-15T16:06:31;97422.81;;;30.94;24.73
57086;BME280;42964;42.910;23.792;2022-07-15T16:11:30;97435.19;;;30.85;24.83
57086;BME280;42964;42.910;23.792;2022-07-15T16:16:29;97437.03;;;30.85;24.43
57086;BME280;42964;42.910;23.792;2022-07-15T16:21:29;97429.44;;;30.90;24.19
57086;BME280;42964;42.910;23.792;2022-07-15T16:26:46;97439.31;;;30.89;25.26
57086;BME280;42964;42.910;23.792;2022-07-15T16:31:45;97437.03;;;30.85;24.64
57086;BME280;42964;42.910;23.792;2022-07-15T16:36:44;97418.38;;;30.73;24.66
57086;BME280;42964;42.910;23.792;2022-07-15T16:41:43;97438.06;;;30.63;24.94
57086;BME280;42964;42.910;23.792;2022-07-15T16:46:42;97435.97;;;30.66;25.22
57086;BME280;42964;42.910;23.792;2022-07-15T16:51:41;97440.94;;;30.71;25.62
57086;BME280;42964;42.910;23.792;2022-07-15T16:56:40;97438.66;;;30.66;25.69
57086;BME280;42964;42.910;23.792;2022-07-15T17:01:39;97440.31;;;30.58;25.74
57086;BME280;42964;42.910;23.792;2022-07-15T17:06:38;97439.88;;;30.52;26.05
57086;BME280;42964;42.910;23.792;2022-07-15T17:11:37;97441.16;;;30.37;26.78
57086;BME280;42964;42.910;23.792;2022-07-15T17:16:37;97446.94;;;30.11;29.10
57086;BME280;42964;42.910;23.792;2022-07-15T17:21:36;97450.59;;;29.89;30.97
57086;BME280;42964;42.910;23.792;2022-07-15T17:26:35;97454.38;;;29.55;31.73
57086;BME280;42964;42.910;23.792;2022-07-15T17:31:35;97447.19;;;29.23;32.57
57086;BME280;42964;42.910;23.792;2022-07-15T17:36:34;97458.91;;;28.88;33.16
57086;BME280;42964;42.910;23.792;2022-07-15T17:41:33;97462.53;;;28.53;33.42
57086;BME280;42964;42.910;23.792;2022-07-15T17:46:32;97472.47;;;28.17;33.39
57086;BME280;42964;42.910;23.792;2022-07-15T17:51:31;97463.59;;;27.81;33.68
57086;BME280;42964;42.910;23.792;2022-07-15T17:56:30;97469.09;;;27.43;34.62
57086;BME280;42964;42.910;23.792;2022-07-15T18:01:29;97478.22;;;27.04;35.42
57086;BME280;42964;42.910;23.792;2022-07-15T18:06:28;97485.59;;;26.62;36.86
57086;BME280;42964;42.910;23.792;2022-07-15T18:11:27;97497.13;;;26.24;38.21
57086;BME280;42964;42.910;23.792;2022-07-15T18:16:27;97502.91;;;25.90;38.70
57086;BME280;42964;42.910;23.792;2022-07-15T18:21:26;97500.88;;;25.54;39.64
57086;BME280;42964;42.910;23.792;2022-07-15T18:26:25;97509.19;;;25.21;40.31
57086;BME280;42964;42.910;23.792;2022-07-15T18:31:24;97515.78;;;24.86;41.66
57086;BME280;42964;42.910;23.792;2022-07-15T18:36:23;97520.88;;;24.61;43.07
57086;BME280;42964;42.910;23.792;2022-07-15T18:41:22;97527.22;;;24.30;44.46
57086;BME280;42964;42.910;23.792;2022-07-15T18:46:21;97532.25;;;24.04;45.01
57086;BME280;42964;42.910;23.792;2022-07-15T18:51:20;97543.16;;;23.83;45.58
57086;BME280;42964;42.910;23.792;2022-07-15T18:56:19;97534.66;;;23.62;46.13
57086;BME280;42964;42.910;23.792;2022-07-15T19:01:19;97538.56;;;23.39;46.76
57086;BME280;42964;42.910;23.792;2022-07-15T19:06:18;97548.94;;;23.28;46.19
57086;BME280;42964;42.910;23.792;2022-07-15T19:11:17;97562.22;;;23.11;45.47
57086;BME280;42964;42.910;23.792;2022-07-15T19:16:16;97569.63;;;23.04;45.32
57086;BME280;42964;42.910;23.792;2022-07-15T19:21:16;97567.41;;;22.96;45.18
57086;BME280;42964;42.910;23.792;2022-07-15T19:26:15;97555.78;;;22.83;45.38
57086;BME280;42964;42.910;23.792;2022-07-15T19:31:14;97578.91;;;22.79;45.24
57086;BME280;42964;42.910;23.792;2022-07-15T19:36:13;97584.59;;;22.72;45.50
57086;BME280;42964;42.910;23.792;2022-07-15T19:41:13;97593.16;;;22.59;46.76
57086;BME280;42964;42.910;23.792;2022-07-15T19:46:13;97587.81;;;22.44;49.81
57086;BME280;42964;42.910;23.792;2022-07-15T19:51:13;97594.56;;;22.32;50.46
57086;BME280;42964;42.910;23.792;2022-07-15T19:56:12;97597.78;;;22.21;50.54
57086;BME280;42964;42.910;23.792;2022-07-15T20:01:11;97599.63;;;22.02;50.61
57086;BME280;42964;42.910;23.792;2022-07-15T20:06:10;97601.06;;;21.90;52.08
57086;BME280;42964;42.910;23.792;2022-07-15T20:11:09;97604.44;;;21.74;52.21
57086;BME280;42964;42.910;23.792;2022-07-15T20:16:09;97605.75;;;21.47;52.85
57086;BME280;42964;42.910;23.792;2022-07-15T20:21:08;97616.06;;;21.34;53.57
57086;BME280;42964;42.910;23.792;2022-07-15T20:26:07;97615.88;;;21.18;54.13
57086;BME280;42964;42.910;23.792;2022-07-15T20:31:06;97608.53;;;21.06;55.14
57086;BME280;42964;42.910;23.792;2022-07-15T20:36:05;97617.25;;;20.87;56.53
57086;BME280;42964;42.910;23.792;2022-07-15T20:41:04;97626.69;;;20.73;56.82
57086;BME280;42964;42.910;23.792;2022-07-15T20:46:03;97621.06;;;20.61;57.98
57086;BME280;42964;42.910;23.792;2022-07-15T20:51:03;97626.50;;;20.36;60.04
57086;BME280;42964;42.910;23.792;2022-07-15T20:56:02;97638.41;;;20.24;59.84
57086;BME280;42964;42.910;23.792;2022-07-15T21:01:01;97625.19;;;20.04;60.17
57086;BME280;42964;42.910;23.792;2022-07-15T21:06:00;97628.09;;;19.98;59.91
57086;BME280;42964;42.910;23.792;2022-07-15T21:10:59;97635.22;;;19.96;59.97
57086;BME280;42964;42.910;23.792;2022-07-15T21:15:59;97642.59;;;19.86;60.38
57086;BME280;42964;42.910;23.792;2022-07-15T21:20:58;97640.41;;;19.75;61.26
57086;BME280;42964;42.910;23.792;2022-07-15T21:25:57;97640.91;;;19.63;61.49
57086;BME280;42964;42.910;23.792;2022-07-15T21:31:15;97642.06;;;19.56;61.84
57086;BME280;42964;42.910;23.792;2022-07-15T21:36:14;97643.09;;;19.50;62.54
57086;BME280;42964;42.910;23.792;2022-07-15T21:41:13;97635.38;;;19.45;63.09
57086;BME280;42964;42.910;23.792;2022-07-15T21:46:12;97639.13;;;19.40;63.54
57086;BME280;42964;42.910;23.792;2022-07-15T21:51:11;97633.38;;;19.30;64.42
57086;BME280;42964;42.910;23.792;2022-07-15T21:56:10;97632.78;;;19.22;64.51
57086;BME280;42964;42.910;23.792;2022-07-15T22:01:09;97641.66;;;19.19;64.53
57086;BME280;42964;42.910;23.792;2022-07-15T22:06:09;97644.78;;;19.06;64.93
57086;BME280;42964;42.910;23.792;2022-07-15T22:11:08;97639.22;;;18.90;65.66
57086;BME280;42964;42.910;23.792;2022-07-15T22:16:07;97643.16;;;18.78;66.07
57086;BME280;42964;42.910;23.792;2022-07-15T22:21:08;97639.31;;;18.61;66.35
57086;BME280;42964;42.910;23.792;2022-07-15T22:26:07;97639.88;;;18.46;67.10
57086;BME280;42964;42.910;23.792;2022-07-15T22:31:07;97644.59;;;18.36;67.26
57086;BME280;42964;42.910;23.792;2022-07-15T22:36:06;97636.88;;;18.32;68.25
57086;BME280;42964;42.910;23.792;2022-07-15T22:41:05;97643.94;;;18.30;68.41
57086;BME280;42964;42.910;23.792;2022-07-15T22:46:04;97643.31;;;18.22;69.13
57086;BME280;42964;42.910;23.792;2022-07-15T22:51:03;97628.75;;;18.13;68.97
57086;BME280;42964;42.910;23.792;2022-07-15T22:56:02;97638.38;;;18.12;69.43
57086;BME280;42964;42.910;23.792;2022-07-15T23:01:01;97648.84;;;18.14;69.41
57086;BME280;42964;42.910;23.792;2022-07-15T23:06:00;97653.31;;;18.10;69.27
57086;BME280;42964;42.910;23.792;2022-07-15T23:10:59;97652.63;;;18.05;69.50
57086;BME280;42964;42.910;23.792;2022-07-15T23:15:58;97645.03;;;17.96;69.50
57086;BME280;42964;42.910;23.792;2022-07-15T23:20:57;97656.75;;;17.86;69.37
57086;BME280;42964;42.910;23.792;2022-07-15T23:25:56;97657.03;;;17.76;69.28
57086;BME280;42964;42.910;23.792;2022-07-15T23:30:56;97673.03;;;17.67;69.61
57086;BME280;42964;42.910;23.792;2022-07-15T23:35:55;97669.66;;;17.64;69.63
57086;BME280;42964;42.910;23.792;2022-07-15T23:40:54;97669.00;;;17.57;70.47
57086;BME280;42964;42.910;23.792;2022-07-15T23:45:53;97662.06;;;17.54;70.56
57086;BME280;42964;42.910;23.792;2022-07-15T23:50:52;97662.06;;;17.54;70.60
57086;BME280;42964;42.910;23.792;2022-07-15T23:55:51;97655.28;;;17.47;70.87
